createdAt,value
2022-10-23T00:01:03.164Z,51.4
2022-10-23T00:02:05.726Z,51.5
2022-10-23T00:03:09.126Z,51.5
2022-10-23T00:04:41.372Z,51.5
2022-10-23T00:05:35.194Z,51.4
2022-10-23T00:06:37.791Z,51.4
2022-10-23T00:08:11.231Z,51.4
2022-10-23T00:09:04.066Z,51.4
2022-10-23T00:10:17.126Z,51.4
2022-10-23T00:11:19.882Z,51.4
2022-10-23T00:12:33.936Z,51.3
2022-10-23T00:13:47.412Z,51.4
2022-10-23T00:14:50.624Z,51.4
2022-10-23T00:16:03.024Z,51.4
2022-10-23T00:17:16.144Z,51.4
2022-10-23T00:18:18.771Z,51.3
2022-10-23T00:19:32.141Z,51.4
2022-10-23T00:20:44.553Z,51.4
2022-10-23T00:21:57.697Z,51.4
2022-10-23T00:23:00.227Z,51.4
2022-10-23T00:24:13.643Z,51.4
2022-10-23T00:25:26.086Z,51.4
2022-10-23T00:26:29.887Z,51.4
2022-10-23T00:27:52.267Z,51.5
2022-10-23T00:28:55.643Z,51.5
2022-10-23T00:29:58.225Z,51.5
2022-10-23T00:31:11.642Z,51.5
2022-10-23T00:32:34.075Z,51.4
2022-10-23T00:33:37.668Z,51.5
2022-10-23T00:34:40.188Z,51.4
2022-10-23T00:35:53.693Z,51.4
2022-10-23T00:37:16.130Z,51.5
2022-10-23T00:38:09.669Z,51.4
2022-10-23T00:39:22.083Z,51.4
2022-10-23T00:40:35.125Z,51.4
2022-10-23T00:41:47.596Z,51.4
2022-10-23T00:42:51.147Z,51.4
2022-10-23T00:44:03.584Z,51.4
2022-10-23T00:45:16.799Z,51.5
2022-10-23T00:46:19.348Z,51.4
2022-10-23T00:47:32.681Z,51.4
2022-10-23T00:48:45.181Z,51.5
2022-10-23T00:49:58.746Z,51.5
2022-10-23T00:51:01.288Z,51.5
2022-10-23T00:52:14.662Z,51.5
2022-10-23T00:53:27.104Z,51.5
2022-10-23T00:54:30.699Z,51.5
2022-10-23T00:55:43.182Z,51.5
2022-10-23T00:56:56.677Z,51.5
2022-10-23T00:57:59.200Z,51.5
2022-10-23T00:59:12.632Z,51.5
2022-10-23T01:00:25.150Z,51.5
2022-10-23T01:01:38.811Z,51.5
2022-10-23T01:02:42.163Z,51.5
2022-10-23T01:03:56.174Z,51.5
2022-10-23T01:05:08.661Z,51.6
2022-10-23T01:06:12.184Z,51.5
2022-10-23T01:07:24.638Z,51.5
2022-10-23T01:08:38.158Z,51.5
2022-10-23T01:09:40.713Z,51.5
2022-10-23T01:10:54.151Z,51.5
2022-10-23T01:12:06.637Z,51.6
2022-10-23T01:13:19.681Z,51.5
2022-10-23T01:14:22.326Z,51.5
2022-10-23T01:15:35.704Z,51.6
2022-10-23T01:16:48.144Z,51.6
2022-10-23T01:17:51.886Z,51.6
2022-10-23T01:19:04.425Z,51.6
2022-10-23T01:20:17.661Z,51.5
2022-10-23T01:21:20.212Z,51.6
2022-10-23T01:22:34.173Z,51.6
2022-10-23T01:23:46.622Z,51.6
2022-10-23T01:24:59.667Z,51.5
2022-10-23T01:26:03.122Z,51.5
2022-10-23T01:27:16.150Z,51.6
2022-10-23T01:28:28.635Z,51.6
2022-10-23T01:29:32.181Z,51.6
2022-10-23T01:30:44.659Z,51.6
2022-10-23T01:31:58.141Z,51.6
2022-10-23T01:33:00.647Z,51.5
2022-10-23T01:34:14.189Z,51.6
2022-10-23T01:35:26.642Z,51.6
2022-10-23T01:36:40.155Z,51.5
2022-10-23T01:37:42.653Z,51.6
2022-10-23T01:38:56.176Z,51.5
2022-10-23T01:40:08.816Z,51.6
2022-10-23T01:41:12.704Z,51.6
2022-10-23T01:42:25.164Z,51.6
2022-10-23T01:43:38.680Z,51.6
2022-10-23T01:44:41.254Z,51.6
2022-10-23T01:45:54.663Z,51.6
2022-10-23T01:47:07.153Z,51.5
2022-10-23T01:48:11.192Z,51.5
2022-10-23T01:49:23.650Z,51.5
2022-10-23T01:50:37.273Z,51.5
2022-10-23T01:51:40.898Z,51.6
2022-10-23T01:52:54.184Z,51.5
2022-10-23T01:54:06.623Z,51.5
2022-10-23T01:55:19.684Z,51.6
2022-10-23T01:56:22.275Z,51.5
2022-10-23T01:57:35.707Z,51.5
2022-10-23T01:58:48.187Z,51.5
2022-10-23T01:59:51.660Z,51.5
2022-10-23T02:01:04.217Z,51.5
2022-10-23T02:02:17.743Z,51.6
2022-10-23T02:03:20.393Z,51.6
2022-10-23T02:04:33.785Z,51.6
2022-10-23T02:05:46.237Z,51.6
2022-10-23T02:06:59.713Z,51.6
2022-10-23T02:08:02.302Z,51.5
2022-10-23T02:09:15.691Z,51.6
2022-10-23T02:10:28.151Z,51.6
2022-10-23T02:11:31.956Z,51.5
2022-10-23T02:12:44.607Z,51.5
2022-10-23T02:13:57.673Z,51.5
2022-10-23T02:15:00.234Z,51.5
2022-10-23T02:16:13.701Z,51.5
2022-10-23T02:17:36.038Z,51.5
2022-10-23T02:18:39.195Z,51.6
2022-10-23T02:19:41.771Z,51.5
2022-10-23T02:20:55.216Z,51.6
2022-10-23T02:22:07.698Z,51.5
2022-10-23T02:23:11.701Z,51.5
2022-10-23T02:24:24.399Z,51.5
2022-10-23T02:25:37.709Z,51.5
2022-10-23T02:26:40.320Z,51.5
2022-10-23T02:27:53.681Z,51.5
2022-10-23T02:30:19.213Z,51.5
2022-10-23T02:31:21.809Z,51.5
2022-10-23T02:32:35.159Z,51.5
2022-10-23T02:33:47.606Z,51.5
2022-10-23T02:34:51.192Z,51.5
2022-10-23T02:36:03.662Z,51.5
2022-10-23T02:37:17.256Z,51.5
2022-10-23T02:38:19.943Z,51.5
2022-10-23T02:39:33.209Z,51.5
2022-10-23T02:40:45.703Z,51.5
2022-10-23T02:41:59.230Z,51.5
2022-10-23T02:43:02.010Z,51.5
2022-10-23T02:44:35.177Z,51.6
2022-10-23T02:45:28.113Z,51.5
2022-10-23T02:46:30.945Z,51.5
2022-10-23T02:47:44.610Z,51.5
2022-10-23T02:48:57.249Z,51.5
2022-10-23T02:50:10.703Z,51.5
2022-10-23T02:51:13.210Z,51.5
2022-10-23T02:52:27.698Z,51.5
2022-10-23T02:53:40.157Z,51.5
2022-10-23T02:54:43.721Z,51.5
2022-10-23T02:55:56.175Z,51.5
2022-10-23T02:57:09.691Z,51.5
2022-10-23T02:58:12.444Z,51.5
2022-10-23T02:59:25.758Z,51.4
2022-10-23T03:00:38.358Z,51.5
2022-10-23T03:01:41.851Z,51.4
2022-10-23T03:02:54.372Z,51.5
2022-10-23T03:04:07.710Z,51.4
2022-10-23T03:05:20.182Z,51.4
2022-10-23T03:06:23.713Z,51.5
2022-10-23T03:07:36.185Z,51.4
2022-10-23T03:08:49.777Z,51.5
2022-10-23T03:09:52.373Z,51.5
2022-10-23T03:11:05.958Z,51.5
2022-10-23T03:12:18.399Z,51.5
2022-10-23T03:13:21.702Z,51.5
2022-10-23T03:14:34.152Z,51.5
2022-10-23T03:15:47.711Z,51.5
2022-10-23T03:17:00.278Z,51.5
2022-10-23T03:18:03.716Z,51.5
2022-10-23T03:19:16.168Z,51.5
2022-10-23T03:20:29.680Z,51.5
2022-10-23T03:21:32.256Z,51.5
2022-10-23T03:22:45.994Z,51.4
2022-10-23T03:23:58.955Z,51.5
2022-10-23T03:25:12.419Z,51.4
2022-10-23T03:26:14.980Z,51.5
2022-10-23T03:28:31.667Z,51.5
2022-10-23T03:29:44.731Z,51.4
2022-10-23T03:30:57.186Z,51.4
2022-10-23T03:32:10.181Z,51.5
2022-10-23T03:33:12.771Z,51.5
2022-10-23T03:34:26.219Z,51.4
2022-10-23T03:35:38.848Z,51.4
2022-10-23T03:36:52.193Z,51.4
2022-10-23T03:37:54.715Z,51.4
2022-10-23T03:39:08.212Z,51.4
2022-10-23T03:40:21.117Z,51.4
2022-10-23T03:41:24.805Z,51.4
2022-10-23T03:42:47.243Z,51.4
2022-10-23T03:43:50.734Z,51.5
2022-10-23T03:44:53.525Z,51.5
2022-10-23T03:46:06.718Z,51.4
2022-10-23T03:47:19.263Z,51.4
2022-10-23T03:48:32.720Z,51.4
2022-10-23T03:49:35.309Z,51.4
2022-10-23T03:50:48.827Z,51.4
2022-10-23T03:52:01.292Z,51.4
2022-10-23T03:53:04.836Z,51.4
2022-10-23T03:54:17.523Z,51.4
2022-10-23T03:55:30.738Z,51.4
2022-10-23T03:56:33.313Z,51.4
2022-10-23T03:57:46.733Z,51.4
2022-10-23T03:58:59.236Z,51.4
2022-10-23T04:00:12.762Z,51.4
2022-10-23T04:01:15.314Z,51.4
2022-10-23T04:02:28.790Z,51.4
2022-10-23T04:03:42.100Z,51.4
2022-10-23T04:04:45.711Z,51.4
2022-10-23T04:05:58.170Z,51.4
2022-10-23T04:07:11.717Z,51.5
2022-10-23T04:08:17.700Z,51.5
2022-10-23T04:09:33.740Z,51.5
2022-10-23T04:10:36.267Z,51.5
2022-10-23T04:11:49.756Z,51.5
2022-10-23T04:13:02.219Z,51.6
2022-10-23T04:14:06.706Z,51.5
2022-10-23T04:15:19.140Z,51.5
2022-10-23T04:16:32.259Z,51.5
2022-10-23T04:17:34.982Z,51.5
2022-10-23T04:18:48.739Z,51.5
2022-10-23T04:20:01.743Z,51.4
2022-10-23T04:21:05.242Z,51.5
2022-10-23T04:22:17.725Z,51.5
2022-10-23T04:23:31.231Z,51.5
2022-10-23T04:24:43.720Z,51.5
2022-10-23T04:26:59.947Z,51.5
2022-10-23T04:28:13.246Z,51.5
2022-10-23T04:29:15.917Z,51.5
2022-10-23T04:30:29.204Z,51.5
2022-10-23T04:31:41.744Z,51.5
2022-10-23T04:32:45.236Z,51.5
2022-10-23T04:33:57.714Z,51.5
2022-10-23T04:35:11.238Z,51.4
2022-10-23T04:36:13.790Z,51.4
2022-10-23T04:37:27.212Z,51.5
2022-10-23T04:38:39.734Z,51.4
2022-10-23T04:39:54.253Z,51.5
2022-10-23T04:40:56.790Z,51.5
2022-10-23T04:42:20.253Z,51.4
2022-10-23T04:43:22.967Z,51.5
2022-10-23T04:44:26.250Z,51.5
2022-10-23T04:45:38.710Z,51.4
2022-10-23T04:46:53.216Z,51.5
2022-10-23T04:47:55.749Z,51.4
2022-10-23T04:49:09.723Z,51.4
2022-10-23T04:50:22.202Z,51.5
2022-10-23T04:51:25.732Z,51.4
2022-10-23T04:52:38.189Z,51.4
2022-10-23T04:53:51.718Z,51.5
2022-10-23T04:54:54.283Z,51.5
2022-10-23T04:56:07.751Z,51.4
2022-10-23T04:57:20.217Z,51.4
2022-10-23T04:58:33.744Z,51.5
2022-10-23T04:59:36.288Z,51.4
2022-10-23T05:00:49.805Z,51.4
2022-10-23T05:02:02.413Z,51.5
2022-10-23T05:03:05.741Z,51.4
2022-10-23T05:04:18.198Z,51.5
2022-10-23T05:05:31.729Z,51.5
2022-10-23T05:06:34.349Z,51.4
2022-10-23T05:07:47.990Z,51.5
2022-10-23T05:09:00.449Z,51.5
2022-10-23T05:10:03.743Z,51.5
2022-10-23T05:11:16.194Z,51.5
2022-10-23T05:12:29.767Z,51.5
2022-10-23T05:13:42.247Z,51.5
2022-10-23T05:14:45.750Z,51.5
2022-10-23T05:15:58.231Z,51.5
2022-10-23T05:17:11.766Z,51.6
2022-10-23T05:18:14.497Z,51.5
2022-10-23T05:19:27.748Z,51.5
2022-10-23T05:20:40.233Z,51.5
2022-10-23T05:21:43.778Z,51.6
2022-10-23T05:22:56.228Z,51.5
2022-10-23T05:24:09.741Z,51.5
2022-10-23T05:25:22.191Z,51.6
2022-10-23T05:26:25.752Z,51.6
2022-10-23T05:27:38.232Z,51.6
2022-10-23T05:28:51.784Z,51.5
2022-10-23T05:29:54.468Z,51.5
2022-10-23T05:31:07.732Z,51.6
2022-10-23T05:33:24.766Z,51.5
2022-10-23T05:34:37.252Z,51.6
2022-10-23T05:35:50.787Z,51.6
2022-10-23T05:36:53.324Z,51.5
2022-10-23T05:38:06.717Z,51.6
2022-10-23T05:39:19.253Z,51.5
2022-10-23T05:40:32.801Z,51.6
2022-10-23T05:41:35.363Z,51.6
2022-10-23T05:42:48.986Z,51.5
2022-10-23T05:44:01.703Z,51.6
2022-10-23T05:45:05.252Z,51.5
2022-10-23T05:46:17.693Z,51.6
2022-10-23T05:47:30.767Z,51.5
2022-10-23T05:48:35.070Z,51.6
2022-10-23T05:49:48.768Z,51.6
2022-10-23T05:51:01.200Z,51.6
2022-10-23T05:52:04.767Z,51.6
2022-10-23T05:53:17.289Z,51.6
2022-10-23T05:54:32.291Z,51.6
2022-10-23T05:55:34.871Z,51.6
2022-10-23T05:56:48.282Z,51.6
2022-10-23T05:58:00.758Z,51.6
2022-10-23T05:59:04.264Z,51.6
2022-10-23T06:00:16.723Z,51.6
2022-10-23T06:01:30.322Z,51.6
2022-10-23T06:02:33.121Z,51.6
2022-10-23T06:03:46.745Z,51.6
2022-10-23T06:04:59.165Z,51.6
2022-10-23T06:06:12.776Z,51.6
2022-10-23T06:07:15.339Z,51.6
2022-10-23T06:08:28.731Z,51.6
2022-10-23T06:09:41.193Z,51.7
2022-10-23T06:10:44.731Z,51.7
2022-10-23T06:11:57.171Z,51.6
2022-10-23T06:13:10.769Z,51.7
2022-10-23T06:14:13.344Z,51.6
2022-10-23T06:15:26.795Z,51.6
2022-10-23T06:16:39.271Z,51.6
2022-10-23T06:17:52.725Z,51.6
2022-10-23T06:18:55.278Z,51.6
2022-10-23T06:20:08.755Z,51.6
2022-10-23T06:21:21.236Z,51.8
2022-10-23T06:22:24.786Z,51.7
2022-10-23T06:23:57.081Z,51.8
2022-10-23T06:24:51.766Z,51.9
2022-10-23T06:25:54.269Z,51.9
2022-10-23T06:27:07.774Z,51.8
2022-10-23T06:28:20.794Z,51.8
2022-10-23T06:29:24.276Z,51.8
2022-10-23T06:31:49.737Z,51.8
2022-10-23T06:32:52.271Z,51.7
2022-10-23T06:34:05.773Z,51.7
2022-10-23T06:35:18.239Z,51.7
2022-10-23T06:36:31.260Z,51.8
2022-10-23T06:37:33.787Z,51.9
2022-10-23T06:38:47.311Z,51.8
2022-10-23T06:39:59.684Z,51.5
2022-10-23T06:41:02.791Z,51.3
2022-10-23T06:42:15.168Z,51.1
2022-10-23T06:43:28.240Z,50.8
2022-10-23T06:44:40.783Z,50.5
2022-10-23T06:45:44.266Z,50.3
2022-10-23T06:46:56.552Z,50.0
2022-10-23T06:48:09.769Z,49.8
2022-10-23T06:49:13.189Z,49.6
2022-10-23T06:50:26.274Z,49.4
2022-10-23T06:51:38.486Z,49.2
2022-10-23T06:52:46.988Z,49.1
2022-10-23T06:53:49.983Z,48.9
2022-10-23T06:55:03.280Z,48.7
2022-10-23T06:56:15.510Z,48.5
2022-10-23T06:57:28.787Z,48.4
2022-10-23T06:58:31.058Z,48.4
2022-10-23T06:59:44.272Z,48.2
2022-10-23T07:00:56.666Z,48.1
2022-10-23T07:02:00.261Z,48.1
2022-10-23T07:03:12.434Z,48.0
2022-10-23T07:04:25.265Z,47.9
2022-10-23T07:05:37.467Z,47.8
2022-10-23T07:06:40.789Z,47.7
2022-10-23T07:07:53.023Z,47.7
2022-10-23T07:09:06.273Z,47.6
2022-10-23T07:10:09.264Z,47.6
2022-10-23T07:11:22.246Z,47.5
2022-10-23T07:12:34.366Z,47.4
2022-10-23T07:13:47.262Z,47.3
2022-10-23T07:14:49.605Z,47.4
2022-10-23T07:16:02.785Z,47.3
2022-10-23T07:17:14.997Z,47.3
2022-10-23T07:18:18.276Z,47.2
2022-10-23T07:19:30.481Z,47.2
2022-10-23T07:20:43.386Z,47.2
2022-10-23T07:21:55.589Z,47.2
2022-10-23T07:22:58.764Z,47.1
2022-10-23T07:24:10.903Z,47.1
2022-10-23T07:25:23.774Z,47.1
2022-10-23T07:26:26.102Z,47.0
2022-10-23T07:27:39.402Z,47.0
2022-10-23T07:28:51.696Z,47.0
2022-10-23T07:30:04.789Z,47.0
2022-10-23T07:31:07.036Z,46.9
2022-10-23T07:32:19.779Z,46.9
2022-10-23T07:33:31.932Z,46.9
2022-10-23T07:34:35.282Z,46.6
2022-10-23T07:35:47.422Z,46.4
2022-10-23T07:37:00.305Z,46.9
2022-10-23T07:38:12.566Z,47.2
2022-10-23T07:39:15.766Z,47.4
2022-10-23T07:40:28.957Z,47.3
2022-10-23T07:41:42.291Z,47.2
2022-10-23T07:42:44.741Z,47.2
2022-10-23T07:43:57.798Z,47.2
2022-10-23T07:45:10.017Z,47.0
2022-10-23T07:46:22.807Z,46.8
2022-10-23T07:47:25.295Z,46.7
2022-10-23T07:48:48.382Z,46.6
2022-10-23T07:49:50.649Z,46.4
2022-10-23T07:50:53.849Z,46.2
2022-10-23T07:52:06.059Z,46.0
2022-10-23T07:53:19.258Z,45.9
2022-10-23T07:54:21.952Z,45.7
2022-10-23T07:55:34.804Z,45.5
2022-10-23T07:56:46.997Z,45.5
2022-10-23T07:58:00.303Z,45.0
2022-10-23T07:59:02.587Z,44.3
2022-10-23T08:00:15.859Z,44.6
2022-10-23T08:01:28.372Z,44.6
2022-10-23T08:02:31.792Z,44.6
2022-10-23T08:03:43.985Z,44.4
2022-10-23T08:04:57.301Z,44.4
2022-10-23T08:06:09.580Z,44.1
2022-10-23T08:07:12.810Z,44.2
2022-10-23T08:08:25.052Z,44.2
2022-10-23T08:09:38.301Z,44.4
2022-10-23T08:10:40.584Z,44.5
2022-10-23T08:11:53.766Z,44.5
2022-10-23T08:13:05.975Z,44.5
2022-10-23T08:14:18.798Z,44.5
2022-10-23T08:15:21.111Z,44.6
2022-10-23T08:18:01.703Z,44.5
2022-10-23T08:18:54.021Z,44.5
2022-10-23T08:20:06.727Z,44.5
2022-10-23T08:21:08.806Z,44.5
2022-10-23T08:22:21.706Z,44.3
2022-10-23T08:23:33.720Z,44.4
2022-10-23T08:24:46.746Z,44.4
2022-10-23T08:25:49.032Z,44.6
2022-10-23T08:27:02.254Z,44.6
2022-10-23T08:28:14.429Z,44.6
2022-10-23T08:29:27.253Z,44.6
2022-10-23T08:30:29.538Z,44.7
2022-10-23T08:31:42.753Z,44.6
2022-10-23T08:32:55.079Z,44.7
2022-10-23T08:33:58.231Z,44.7
2022-10-23T08:35:10.423Z,44.7
2022-10-23T08:36:23.234Z,44.8
2022-10-23T08:37:35.481Z,44.8
2022-10-23T08:38:39.204Z,44.7
2022-10-23T08:39:53.261Z,44.7
2022-10-23T08:41:06.721Z,44.8
2022-10-23T08:43:21.725Z,44.7
2022-10-23T08:44:33.965Z,44.6
2022-10-23T08:45:37.251Z,44.6
2022-10-23T08:46:49.485Z,44.6
2022-10-23T08:48:02.238Z,44.7
2022-10-23T08:49:14.388Z,44.6
2022-10-23T08:50:18.783Z,44.6
2022-10-23T08:51:31.048Z,44.6
2022-10-23T08:52:44.565Z,44.6
2022-10-23T08:53:47.115Z,44.6
2022-10-23T08:55:00.230Z,44.6
2022-10-23T08:56:12.464Z,44.6
2022-10-23T08:57:25.756Z,44.6
2022-10-23T08:58:28.080Z,44.6
2022-10-23T08:59:41.217Z,44.6
2022-10-23T09:00:53.535Z,44.7
2022-10-23T09:01:56.854Z,44.6
2022-10-23T09:03:09.135Z,44.7
2022-10-23T09:04:22.213Z,44.6
2022-10-23T09:05:24.545Z,44.6
2022-10-23T09:06:37.754Z,44.7
2022-10-23T09:07:49.941Z,44.7
2022-10-23T09:09:02.765Z,44.7
2022-10-23T09:10:05.124Z,44.7
2022-10-23T09:11:18.266Z,44.7
2022-10-23T09:12:30.696Z,44.6
2022-10-23T09:13:43.744Z,44.7
2022-10-23T09:14:46.072Z,44.6
2022-10-23T09:15:59.237Z,44.6
2022-10-23T09:17:11.451Z,44.7
2022-10-23T09:18:14.750Z,44.6
2022-10-23T09:19:26.961Z,44.6
2022-10-23T09:20:39.885Z,44.6
2022-10-23T09:21:52.273Z,44.6
2022-10-23T09:22:55.730Z,44.6
2022-10-23T09:24:08.147Z,44.6
2022-10-23T09:25:21.243Z,44.6
2022-10-23T09:26:23.577Z,44.6
2022-10-23T09:27:36.770Z,44.6
2022-10-23T09:28:49.033Z,44.6
2022-10-23T09:30:02.563Z,44.6
2022-10-23T09:31:04.916Z,44.6
2022-10-23T09:32:17.766Z,44.6
2022-10-23T09:33:29.946Z,44.6
2022-10-23T09:34:33.546Z,44.6
2022-10-23T09:35:45.810Z,44.6
2022-10-23T09:37:20.173Z,44.6
2022-10-23T09:38:03.900Z,44.6
2022-10-23T09:39:16.248Z,44.6
2022-10-23T09:40:29.272Z,44.6
2022-10-23T09:41:31.523Z,44.6
2022-10-23T09:42:44.240Z,44.6
2022-10-23T09:43:56.400Z,44.6
2022-10-23T09:45:09.781Z,44.6
2022-10-23T09:46:12.006Z,44.6
2022-10-23T09:47:24.788Z,44.6
2022-10-23T09:48:36.988Z,44.5
2022-10-23T09:49:49.786Z,44.6
2022-10-23T09:50:52.457Z,44.6
2022-10-23T09:52:44.784Z,44.6
2022-10-23T09:53:17.793Z,44.6
2022-10-23T09:54:20.065Z,44.6
2022-10-23T09:55:33.271Z,44.5
2022-10-23T09:56:45.481Z,44.5
2022-10-23T09:57:58.750Z,44.5
2022-10-23T09:59:01.112Z,44.5
2022-10-23T10:00:14.278Z,44.5
2022-10-23T10:01:26.665Z,44.5
2022-10-23T10:02:30.245Z,44.4
2022-10-23T10:03:42.410Z,44.5
2022-10-23T10:04:55.318Z,44.5
2022-10-23T10:05:57.623Z,44.5
2022-10-23T10:07:10.751Z,44.5
2022-10-23T10:08:22.984Z,44.5
2022-10-23T10:09:35.770Z,44.4
2022-10-23T10:10:38.148Z,44.5
2022-10-23T10:11:51.263Z,44.5
2022-10-23T10:13:03.459Z,44.5
2022-10-23T10:14:17.266Z,44.5
2022-10-23T10:15:19.751Z,44.5
2022-10-23T10:16:32.857Z,44.5
2022-10-23T10:17:35.224Z,44.5
2022-10-23T10:18:48.242Z,44.5
2022-10-23T10:20:03.853Z,44.6
2022-10-23T10:21:09.759Z,44.6
2022-10-23T10:22:21.944Z,44.5
2022-10-23T10:23:34.752Z,44.6
2022-10-23T10:24:37.011Z,44.6
2022-10-23T10:25:52.107Z,44.6
2022-10-23T10:26:54.719Z,44.6
2022-10-23T10:28:07.775Z,44.6
2022-10-23T10:29:19.943Z,44.6
2022-10-23T10:30:32.850Z,44.6
2022-10-23T10:31:35.125Z,44.6
2022-10-23T10:32:48.293Z,44.6
2022-10-23T10:34:00.446Z,44.6
2022-10-23T10:35:13.262Z,44.6
2022-10-23T10:36:15.655Z,44.6
2022-10-23T10:37:28.773Z,44.6
2022-10-23T10:38:40.962Z,44.6
2022-10-23T10:39:44.296Z,44.6
2022-10-23T10:40:56.469Z,44.7
2022-10-23T10:42:09.279Z,44.6
2022-10-23T10:43:11.797Z,44.6
2022-10-23T10:44:24.770Z,44.6
2022-10-23T10:45:37.764Z,44.6
2022-10-23T10:46:50.782Z,44.7
2022-10-23T10:47:53.034Z,44.7
2022-10-23T10:49:06.283Z,44.7
2022-10-23T10:50:18.381Z,44.6
2022-10-23T10:51:21.802Z,44.7
2022-10-23T10:52:33.947Z,44.6
2022-10-23T10:53:46.809Z,44.6
2022-10-23T10:54:59.024Z,44.5
2022-10-23T10:56:02.317Z,44.6
2022-10-23T10:57:14.523Z,44.5
2022-10-23T10:58:27.329Z,44.5
2022-10-23T10:59:29.595Z,44.4
2022-10-23T11:00:42.329Z,44.4
2022-10-23T11:01:54.689Z,44.4
2022-10-23T11:03:07.793Z,44.4
2022-10-23T11:04:10.054Z,44.4
2022-10-23T11:05:22.814Z,44.4
2022-10-23T11:06:34.975Z,44.3
2022-10-23T11:07:40.481Z,44.4
2022-10-23T11:08:58.066Z,44.4
2022-10-23T11:10:02.282Z,44.4
2022-10-23T11:11:14.930Z,44.4
2022-10-23T11:12:18.281Z,44.4
2022-10-23T11:13:30.370Z,44.3
2022-10-23T11:14:44.807Z,44.4
2022-10-23T11:15:47.097Z,44.4
2022-10-23T11:17:00.296Z,44.5
2022-10-23T11:18:12.382Z,44.4
2022-10-23T11:19:25.408Z,44.5
2022-10-23T11:20:27.689Z,44.5
2022-10-23T11:21:40.819Z,44.5
2022-10-23T11:22:53.104Z,44.5
2022-10-23T11:23:56.340Z,44.5
2022-10-23T11:25:08.512Z,44.5
2022-10-23T11:26:21.280Z,44.5
2022-10-23T11:27:33.433Z,44.6
2022-10-23T11:28:36.293Z,44.6
2022-10-23T11:29:48.451Z,44.6
2022-10-23T11:31:01.303Z,44.6
2022-10-23T11:32:13.499Z,44.6
2022-10-23T11:33:16.836Z,44.6
2022-10-23T11:34:29.004Z,44.6
2022-10-23T11:35:41.818Z,44.6
2022-10-23T11:36:44.144Z,44.6
2022-10-23T11:40:35.340Z,44.6
2022-10-23T11:40:38.457Z,44.7
2022-10-23T11:41:30.777Z,44.6
2022-10-23T11:42:32.967Z,44.5
2022-10-23T11:43:45.810Z,44.4
2022-10-23T11:44:57.927Z,44.3
2022-10-23T11:46:20.795Z,44.2
2022-10-23T11:47:13.206Z,44.2
2022-10-23T11:48:37.306Z,44.2
2022-10-23T11:49:39.570Z,44.1
2022-10-23T11:50:42.799Z,44.2
2022-10-23T11:51:54.919Z,44.1
2022-10-23T11:53:13.871Z,44.1
2022-10-23T11:54:16.792Z,44.1
2022-10-23T11:55:29.831Z,44.2
2022-10-23T11:56:32.013Z,44.1
2022-10-23T11:57:44.794Z,44.2
2022-10-23T11:58:56.987Z,44.2
2022-10-23T11:59:59.854Z,44.2
2022-10-23T12:01:12.028Z,44.2
2022-10-23T12:02:25.408Z,44.3
2022-10-23T12:03:37.688Z,44.3
2022-10-23T12:04:40.791Z,44.3
2022-10-23T12:05:52.965Z,44.3
2022-10-23T12:07:05.841Z,44.3
2022-10-23T12:08:08.107Z,44.3
2022-10-23T12:09:20.822Z,44.3
2022-10-23T12:10:32.961Z,44.3
2022-10-23T12:11:45.814Z,44.3
2022-10-23T12:12:48.005Z,44.3
2022-10-23T12:14:00.868Z,44.3
2022-10-23T12:15:13.081Z,44.4
2022-10-23T12:16:26.330Z,44.3
2022-10-23T12:17:28.541Z,44.4
2022-10-23T12:18:41.314Z,44.3
2022-10-23T12:19:53.380Z,44.3
2022-10-23T12:20:57.817Z,44.3
2022-10-23T12:22:09.951Z,44.3
2022-10-23T12:23:22.823Z,44.2
2022-10-23T12:24:25.214Z,44.2
2022-10-23T12:25:38.345Z,44.2
2022-10-23T12:26:50.440Z,44.2
2022-10-23T12:28:03.337Z,44.1
2022-10-23T12:29:05.585Z,44.1
2022-10-23T12:30:18.324Z,44.1
2022-10-23T12:31:30.446Z,44.0
2022-10-23T12:32:33.296Z,43.9
2022-10-23T12:33:45.441Z,43.9
2022-10-23T12:34:58.326Z,43.9
2022-10-23T12:36:10.511Z,43.8
2022-10-23T12:37:13.873Z,43.9
2022-10-23T12:38:26.130Z,43.9
2022-10-23T12:39:39.347Z,43.9
2022-10-23T12:40:41.602Z,43.9
2022-10-23T12:41:54.340Z,43.9
2022-10-23T12:43:06.426Z,43.8
2022-10-23T12:44:19.412Z,43.9
2022-10-23T12:45:21.662Z,43.8
2022-10-23T12:46:35.852Z,43.8
2022-10-23T12:47:47.931Z,43.8
2022-10-23T12:48:50.866Z,43.9
2022-10-23T12:50:02.885Z,43.9
2022-10-23T12:51:15.866Z,43.8
2022-10-23T12:52:27.881Z,43.8
2022-10-23T12:53:30.821Z,43.7
2022-10-23T12:54:42.943Z,43.8
2022-10-23T12:55:55.896Z,43.7
2022-10-23T12:56:58.140Z,43.7
2022-10-23T12:58:10.824Z,43.7
2022-10-23T12:59:22.913Z,43.6
2022-10-23T13:00:35.838Z,43.6
2022-10-23T13:01:40.471Z,43.6
2022-10-23T13:02:55.856Z,43.7
2022-10-23T13:03:58.244Z,43.6
2022-10-23T13:05:11.356Z,43.6
2022-10-23T13:06:23.450Z,43.6
2022-10-23T13:07:36.354Z,43.6
2022-10-23T13:08:38.537Z,43.6
2022-10-23T13:09:51.417Z,43.6
2022-10-23T13:11:03.609Z,43.6
2022-10-23T13:12:06.848Z,43.6
2022-10-23T13:13:18.981Z,43.6
2022-10-23T13:14:31.996Z,43.6
2022-10-23T13:15:44.075Z,43.6
2022-10-23T13:16:46.877Z,43.6
2022-10-23T13:17:58.957Z,43.6
2022-10-23T13:19:11.855Z,43.6
2022-10-23T13:20:23.962Z,43.6
2022-10-23T13:21:26.851Z,43.6
2022-10-23T13:22:38.935Z,43.6
2022-10-23T13:24:11.884Z,43.6
2022-10-23T13:24:55.000Z,43.6
2022-10-23T13:26:07.094Z,43.7
2022-10-23T13:27:20.369Z,43.6
2022-10-23T13:28:32.485Z,43.6
2022-10-23T13:29:35.882Z,43.6
2022-10-23T13:30:47.975Z,43.6
2022-10-23T13:32:01.075Z,43.7
2022-10-23T13:33:03.451Z,43.9
2022-10-23T13:34:16.386Z,44.1
2022-10-23T13:35:28.413Z,44.0
2022-10-23T13:36:41.370Z,44.0
2022-10-23T13:38:57.355Z,44.3
2022-10-23T13:40:09.949Z,44.5
2022-10-23T13:41:12.914Z,44.7
2022-10-23T13:42:25.014Z,44.8
2022-10-23T13:43:37.871Z,45.0
2022-10-23T13:44:40.174Z,45.1
2022-10-23T13:45:53.374Z,45.2
2022-10-23T13:47:05.488Z,45.3
2022-10-23T13:48:18.422Z,45.3
2022-10-23T13:49:20.758Z,45.3
2022-10-23T13:50:33.896Z,45.4
2022-10-23T13:51:46.005Z,45.5
2022-10-23T13:52:49.354Z,45.5
2022-10-23T13:54:01.437Z,45.5
2022-10-23T13:55:15.883Z,45.5
2022-10-23T13:56:18.151Z,45.6
2022-10-23T13:57:31.384Z,45.6
2022-10-23T13:58:43.845Z,45.6
2022-10-23T13:59:56.863Z,45.7
2022-10-23T14:00:59.140Z,45.7
2022-10-23T14:02:12.461Z,45.7
2022-10-23T14:03:24.651Z,45.7
2022-10-23T14:04:37.435Z,45.7
2022-10-23T14:05:39.709Z,45.8
2022-10-23T14:06:52.874Z,45.8
2022-10-23T14:08:04.932Z,45.8
2022-10-23T14:09:07.896Z,45.9
2022-10-23T14:10:22.567Z,45.9
2022-10-23T14:11:27.883Z,46.0
2022-10-23T14:12:40.047Z,46.0
2022-10-23T14:13:52.923Z,45.9
2022-10-23T14:14:55.070Z,46.0
2022-10-23T14:16:08.022Z,46.0
2022-10-23T14:17:20.105Z,46.0
2022-10-23T14:18:32.899Z,46.0
2022-10-23T14:20:47.901Z,45.9
2022-10-23T14:21:59.995Z,45.9
2022-10-23T14:23:12.903Z,46.1
2022-10-23T14:24:15.062Z,46.1
2022-10-23T14:25:28.382Z,46.2
2022-10-23T14:26:40.485Z,46.3
2022-10-23T14:27:53.429Z,46.2
2022-10-23T14:28:55.816Z,46.1
2022-10-23T14:30:08.863Z,46.2
2022-10-23T14:31:40.710Z,46.2
2022-10-23T14:32:24.410Z,46.3
2022-10-23T14:33:36.512Z,46.3
2022-10-23T14:34:49.406Z,46.4
2022-10-23T14:36:01.524Z,46.4
2022-10-23T14:37:08.746Z,46.3
2022-10-23T14:38:21.288Z,46.4
2022-10-23T14:39:24.371Z,46.4
2022-10-23T14:40:36.540Z,46.4
2022-10-23T14:41:49.374Z,46.4
2022-10-23T14:42:51.654Z,46.4
2022-10-23T14:44:05.033Z,46.5
2022-10-23T14:45:37.751Z,46.5
2022-10-23T14:46:30.885Z,46.5
2022-10-23T14:47:33.213Z,46.6
2022-10-23T14:48:49.412Z,46.5
2022-10-23T14:49:55.058Z,46.4
2022-10-23T14:51:07.881Z,46.3
2022-10-23T14:52:10.101Z,46.4
2022-10-23T14:53:23.429Z,46.5
2022-10-23T14:54:35.548Z,46.6
2022-10-23T14:55:48.397Z,46.7
2022-10-23T14:56:50.637Z,46.5
2022-10-23T14:58:03.401Z,46.6
2022-10-23T14:59:15.574Z,46.7
2022-10-23T15:00:28.372Z,43.7
2022-10-23T15:01:30.773Z,45.1
2022-10-23T15:02:44.262Z,43.1
2022-10-23T15:03:56.590Z,44.0
2022-10-23T15:05:00.890Z,43.6
2022-10-23T15:06:17.536Z,45.2
2022-10-23T15:07:21.424Z,45.7
2022-10-23T15:08:33.750Z,45.4
2022-10-23T15:09:46.904Z,46.0
2022-10-23T15:10:49.229Z,46.2
2022-10-23T15:12:02.419Z,46.3
2022-10-23T15:13:14.640Z,46.3
2022-10-23T15:14:17.931Z,46.4
2022-10-23T15:15:30.364Z,46.4
2022-10-23T15:16:43.542Z,46.4
2022-10-23T15:17:55.683Z,46.5
2022-10-23T15:18:58.928Z,46.5
2022-10-23T15:20:11.053Z,46.5
2022-10-23T15:21:23.911Z,46.5
2022-10-23T15:22:26.168Z,46.6
2022-10-23T15:23:39.417Z,46.5
2022-10-23T15:24:51.572Z,46.6
2022-10-23T15:26:05.909Z,46.6
2022-10-23T15:28:20.905Z,46.6
2022-10-23T15:29:33.140Z,46.7
2022-10-23T15:30:36.411Z,46.6
2022-10-23T15:31:48.574Z,46.6
2022-10-23T15:33:01.395Z,46.6
2022-10-23T15:34:03.716Z,46.7
2022-10-23T15:35:17.113Z,46.6
2022-10-23T15:36:29.490Z,46.7
2022-10-23T15:37:42.720Z,46.7
2022-10-23T15:38:45.190Z,46.7
2022-10-23T15:40:01.253Z,46.7
2022-10-23T15:41:24.752Z,46.7
2022-10-23T15:42:17.934Z,46.7
2022-10-23T15:43:30.089Z,46.7